Rechercher aéroport 
image banner adimage banner adimage banner ad
image banner ad

1CL1 - Little Buttes Antique Airfield

Situé à Lancaster, United States

ICAO - 1CL1, IATA -

Données fournies par Airmate  

Information générale

Coordonnées: N34°47'39" W118°16'39"
Élévation : 2433 feet MSL.
Variation magnétique : 14° East
Voir autres Aéroports à California

Données opérationnelles

Special qualification required
Heure actuelle UTC:
Heure actuelle locale:
Météo à : KWJF - General Wm J Fox Airfield ( 8 km )
METAR: KWJF 212356Z 10SM CLR 35/M04 A3013 RMK AO2 SLP186 T03501039 10350 20278 56016
TAF: KWJF 212336Z 2200/2224 06005KT P6SM SKC FM220200 24008KT P6SM SKC FM220700 VRB03KT P6SM SKC
Voir NOTAMs / SUP AIP / TFR affectant cet aéroport [VIEW]
Fréquences de communication: [VIEW]

Pistes:

Identifiant RWYQFULongueur (ft)Largeur (ft)SurfaceLDA (ft)
06290080GRASS
24290080GRASS

Coordonnées de l'aéroport

Adresse: Lancaster United States

Vue satellite de 1CL1